createdAt,value
2018-03-11T00:00:27.280Z,47.07
2018-03-11T00:02:55.494Z,43.80
2018-03-11T00:05:22.936Z,46.00
2018-03-11T00:07:50.382Z,45.47
2018-03-11T00:10:18.592Z,47.60
2018-03-11T00:12:46.040Z,48.37
2018-03-11T00:15:13.538Z,40.67
2018-03-11T00:17:40.996Z,45.50
2018-03-11T00:20:08.536Z,46.87
2018-03-11T00:22:36.000Z,46.87
2018-03-11T00:25:03.443Z,44.80
2018-03-11T00:27:30.883Z,41.60
2018-03-11T00:29:58.348Z,40.50
2018-03-11T00:32:25.796Z,40.03
2018-03-11T00:34:53.238Z,44.60
2018-03-11T00:37:20.684Z,42.33
2018-03-11T00:39:48.888Z,46.77
2018-03-11T00:42:16.341Z,38.50
2018-03-11T00:44:43.779Z,36.83
2018-03-11T00:47:11.223Z,44.53
2018-03-11T00:49:39.432Z,47.40
2018-03-11T00:52:06.881Z,53.13
2018-03-11T00:54:34.323Z,45.00
2018-03-11T00:57:01.770Z,46.27
2018-03-11T00:59:30.080Z,51.63
2018-03-11T01:01:57.521Z,42.93
2018-03-11T01:04:24.959Z,46.30
2018-03-11T01:06:53.168Z,48.57
2018-03-11T01:09:20.622Z,43.53
2018-03-11T01:11:48.055Z,46.83
2018-03-11T01:14:15.486Z,44.60
2018-03-11T01:16:43.987Z,48.90
2018-03-11T01:19:11.495Z,43.30
2018-03-11T01:21:38.952Z,41.43
2018-03-11T01:24:06.519Z,48.00
2018-03-11T01:26:34.079Z,53.03
2018-03-11T01:29:01.632Z,52.67
2018-03-11T01:31:29.072Z,47.67
2018-03-11T01:33:56.508Z,44.07
2018-03-11T01:36:23.956Z,43.17
2018-03-11T01:38:51.392Z,42.20
2018-03-11T01:41:19.598Z,47.87
2018-03-11T01:43:47.091Z,40.17
2018-03-11T01:46:14.556Z,39.83
2018-03-11T01:48:42.104Z,64.90
2018-03-11T01:51:09.543Z,59.67
2018-03-11T01:53:36.978Z,52.30
2018-03-11T01:56:04.426Z,43.40
2018-03-11T01:58:31.881Z,42.40
2018-03-11T02:01:00.124Z,40.73
2018-03-11T02:03:27.573Z,41.63
2018-03-11T02:05:55.121Z,37.00
2018-03-11T02:08:22.580Z,44.27
2018-03-11T02:10:50.027Z,39.93
2018-03-11T02:13:17.468Z,40.87
2018-03-11T02:15:44.925Z,48.97
2018-03-11T02:18:12.360Z,42.87
2018-03-11T02:20:39.811Z,54.27
2018-03-11T02:23:07.256Z,59.93
2018-03-11T02:25:35.488Z,51.20
2018-03-11T02:28:02.948Z,49.40
2018-03-11T02:30:30.504Z,47.73
2018-03-11T02:32:58.065Z,45.30
2018-03-11T02:35:25.512Z,41.67
2018-03-11T02:37:52.980Z,43.03
2018-03-11T02:40:20.439Z,41.20
2018-03-11T02:42:47.896Z,42.50
2018-03-11T02:45:15.350Z,60.47
2018-03-11T02:47:42.955Z,35.90
2018-03-11T02:50:11.185Z,38.17
2018-03-11T02:52:38.640Z,34.17
2018-03-11T02:55:06.091Z,32.33
2018-03-11T02:57:33.656Z,29.77
2018-03-11T03:00:01.115Z,32.40
2018-03-11T03:02:28.568Z,25.37
2018-03-11T03:04:56.009Z,39.47
2018-03-11T03:07:23.484Z,30.93
2018-03-11T03:09:51.046Z,34.47
2018-03-11T03:12:18.479Z,31.93
2018-03-11T03:14:45.923Z,33.40
2018-03-11T03:17:13.411Z,32.00
2018-03-11T03:19:40.872Z,33.80
2018-03-11T03:22:08.337Z,29.30
2018-03-11T03:24:35.887Z,46.30
2018-03-11T03:27:03.448Z,65.13
2018-03-11T03:29:30.892Z,38.30
2018-03-11T03:31:58.355Z,31.57
2018-03-11T03:34:25.812Z,33.73
2018-03-11T03:36:53.587Z,52.07
2018-03-11T03:39:21.144Z,32.97
2018-03-11T03:41:48.585Z,37.20
2018-03-11T03:44:16.022Z,35.03
2018-03-11T03:46:43.508Z,35.63
2018-03-11T03:49:11.075Z,40.73
2018-03-11T03:51:38.635Z,27.20
2018-03-11T03:54:06.083Z,36.73
2018-03-11T03:56:33.544Z,30.90
2018-03-11T03:59:01.099Z,31.80
2018-03-11T04:01:29.070Z,26.37
2018-03-11T04:03:56.532Z,29.60
2018-03-11T04:06:23.988Z,29.37
2018-03-11T04:08:51.447Z,25.07
2018-03-11T04:11:18.995Z,28.70
2018-03-11T04:13:46.451Z,25.53
2018-03-11T04:16:14.973Z,24.27
2018-03-11T04:18:42.499Z,24.53
2018-03-11T04:21:09.964Z,25.73
2018-03-11T04:23:37.516Z,26.70
2018-03-11T04:26:04.948Z,23.93
2018-03-11T04:28:32.427Z,24.47
2018-03-11T04:30:59.870Z,28.23
2018-03-11T04:33:27.358Z,22.00
2018-03-11T04:35:54.812Z,26.10
2018-03-11T04:38:22.407Z,20.50
2018-03-11T04:40:49.911Z,21.27
2018-03-11T04:43:17.680Z,19.30
2018-03-11T04:45:45.244Z,20.40
2018-03-11T04:48:12.704Z,18.47
2018-03-11T04:50:40.149Z,20.90
2018-03-11T04:53:07.611Z,18.23
2018-03-11T04:55:35.050Z,20.93
2018-03-11T04:58:03.131Z,18.13
2018-03-11T05:00:30.836Z,17.53
2018-03-11T05:02:59.048Z,16.23
2018-03-11T05:05:26.491Z,16.00
2018-03-11T05:07:54.199Z,18.40
2018-03-11T05:10:21.627Z,18.53
2018-03-11T05:12:49.071Z,18.23
2018-03-11T05:15:16.507Z,20.27
2018-03-11T05:17:44.894Z,18.60
2018-03-11T05:20:12.296Z,18.07
2018-03-11T05:22:39.758Z,17.50
2018-03-11T05:25:07.307Z,18.40
2018-03-11T05:27:34.760Z,18.60
2018-03-11T05:30:02.232Z,16.80
2018-03-11T05:32:29.851Z,18.37
2018-03-11T05:34:57.249Z,15.70
2018-03-11T05:37:24.692Z,16.43
2018-03-11T05:39:52.156Z,20.17
2018-03-11T05:42:19.600Z,16.63
2018-03-11T05:44:47.075Z,15.50
2018-03-11T05:47:15.228Z,17.13
2018-03-11T05:49:42.679Z,17.53
2018-03-11T05:52:10.132Z,16.23
2018-03-11T05:54:37.616Z,14.50
2018-03-11T05:57:05.051Z,13.67
2018-03-11T05:59:32.528Z,13.70
2018-03-11T06:01:59.968Z,15.63
2018-03-11T06:04:27.415Z,16.50
2018-03-11T06:06:54.852Z,11.77
2018-03-11T06:09:22.292Z,12.70
2018-03-11T06:11:50.492Z,13.03
2018-03-11T06:14:17.984Z,14.70
2018-03-11T06:16:45.447Z,17.67
2018-03-11T06:19:12.901Z,16.63
2018-03-11T06:21:40.340Z,13.40
2018-03-11T06:24:07.780Z,14.57
2018-03-11T06:26:35.222Z,15.30
2018-03-11T06:29:02.829Z,15.90
2018-03-11T06:31:30.274Z,15.43
2018-03-11T06:33:57.706Z,15.10
2018-03-11T06:36:25.164Z,14.83
2018-03-11T06:38:52.702Z,18.37
2018-03-11T06:41:20.241Z,20.20
2018-03-11T06:43:47.677Z,12.63
2018-03-11T06:46:15.124Z,15.63
2018-03-11T06:48:43.200Z,15.50
2018-03-11T06:51:10.652Z,14.13
2018-03-11T06:53:38.117Z,14.23
2018-03-11T06:56:05.564Z,15.27
2018-03-11T06:58:33.023Z,14.27
2018-03-11T07:01:00.490Z,14.10
2018-03-11T07:03:28.536Z,11.87
2018-03-11T07:05:55.975Z,11.77
2018-03-11T07:08:23.463Z,14.60
2018-03-11T07:10:50.953Z,16.03
2018-03-11T07:13:18.360Z,12.90
2018-03-11T07:15:45.835Z,17.53
2018-03-11T07:18:13.284Z,15.67
2018-03-11T07:20:40.734Z,14.37
2018-03-11T07:23:08.408Z,12.10
2018-03-11T07:25:35.867Z,13.97
2018-03-11T07:28:03.322Z,15.30
2018-03-11T07:30:30.772Z,14.43
2018-03-11T07:32:58.221Z,15.53
2018-03-11T07:35:25.652Z,15.37
2018-03-11T07:37:53.155Z,13.23
2018-03-11T07:40:20.608Z,12.20
2018-03-11T07:42:48.053Z,12.60
2018-03-11T07:45:15.497Z,12.70
2018-03-11T07:47:42.945Z,11.70
2018-03-11T07:50:10.436Z,12.93
2018-03-11T07:52:37.868Z,9.93
2018-03-11T07:55:05.308Z,9.57
2018-03-11T07:57:32.807Z,12.53
2018-03-11T08:00:00.244Z,12.07
2018-03-11T08:02:27.724Z,11.80
2018-03-11T08:04:55.284Z,11.43
2018-03-11T08:07:22.735Z,11.23
2018-03-11T08:09:50.176Z,8.97
2018-03-11T08:12:17.611Z,9.20
2018-03-11T08:14:45.103Z,9.03
2018-03-11T08:17:12.562Z,8.33
2018-03-11T08:19:40.027Z,7.90
2018-03-11T08:22:07.481Z,10.17
2018-03-11T08:24:34.936Z,7.67
2018-03-11T08:27:02.361Z,7.97
2018-03-11T08:29:30.400Z,10.20
2018-03-11T08:31:58.644Z,8.40
2018-03-11T08:34:26.096Z,7.93
2018-03-11T08:36:53.532Z,8.23
2018-03-11T08:39:20.976Z,11.27
2018-03-11T08:41:48.403Z,7.50
2018-03-11T08:44:16.631Z,6.60
2018-03-11T08:46:44.068Z,7.67
2018-03-11T08:49:11.566Z,7.00
2018-03-11T08:51:39.791Z,7.93
2018-03-11T08:54:07.292Z,8.20
2018-03-11T08:56:34.844Z,10.67
2018-03-11T08:59:02.703Z,6.77
2018-03-11T09:01:30.153Z,5.30
2018-03-11T09:03:57.596Z,6.50
2018-03-11T09:06:25.025Z,6.63
2018-03-11T09:08:53.224Z,4.37
2018-03-11T09:11:20.660Z,5.83
2018-03-11T09:13:48.861Z,4.67
2018-03-11T09:16:16.308Z,6.43
2018-03-11T09:18:43.753Z,6.20
2018-03-11T09:21:11.192Z,5.93
2018-03-11T09:23:39.402Z,5.20
2018-03-11T09:26:06.850Z,6.43
2018-03-11T09:28:34.283Z,5.83
2018-03-11T09:31:02.488Z,7.70
2018-03-11T09:33:29.926Z,5.23
2018-03-11T09:35:57.360Z,5.27
2018-03-11T09:38:24.793Z,5.83
2018-03-11T09:40:52.248Z,5.67
2018-03-11T09:43:19.687Z,5.73
2018-03-11T09:45:47.124Z,6.23
2018-03-11T09:48:14.556Z,4.93
2018-03-11T09:50:42.763Z,8.20
2018-03-11T09:53:10.214Z,7.03
2018-03-11T09:55:37.686Z,9.90
2018-03-11T09:58:05.846Z,6.13
2018-03-11T10:00:33.269Z,6.93
2018-03-11T10:03:01.488Z,7.73
2018-03-11T10:05:28.923Z,7.97
2018-03-11T10:07:56.352Z,8.77
2018-03-11T10:10:24.563Z,7.73
2018-03-11T10:12:51.989Z,6.97
2018-03-11T10:15:20.193Z,6.37
2018-03-11T10:17:47.624Z,5.37
2018-03-11T10:20:15.827Z,9.97
2018-03-11T10:22:43.263Z,6.90
2018-03-11T10:25:11.467Z,5.00
2018-03-11T10:27:38.909Z,5.20
2018-03-11T10:30:06.401Z,5.53
2018-03-11T10:32:34.550Z,5.73
2018-03-11T10:35:01.991Z,5.70
2018-03-11T10:37:29.419Z,5.97
2018-03-11T10:39:57.632Z,9.10
2018-03-11T10:42:25.112Z,5.57
2018-03-11T10:44:52.544Z,6.30
2018-03-11T10:47:19.987Z,6.40
2018-03-11T10:49:47.455Z,6.00
2018-03-11T10:52:15.630Z,6.77
2018-03-11T10:54:43.066Z,4.57
2018-03-11T10:57:10.524Z,5.23
2018-03-11T10:59:37.960Z,5.53
2018-03-11T11:02:11.833Z,6.97
2018-03-11T11:04:43.211Z,5.60
2018-03-11T11:07:10.642Z,6.53
2018-03-11T11:09:38.072Z,6.33
2018-03-11T11:12:05.516Z,3.97
2018-03-11T11:14:32.941Z,5.57
2018-03-11T11:17:00.379Z,6.77
2018-03-11T11:19:27.804Z,8.77
2018-03-11T11:21:55.239Z,5.50
2018-03-11T11:24:22.676Z,3.50
2018-03-11T11:26:50.888Z,9.07
2018-03-11T11:29:18.323Z,6.28
2018-03-11T11:31:45.764Z,14.70
2018-03-11T11:34:13.966Z,9.10
2018-03-11T11:36:41.426Z,5.93
2018-03-11T11:39:08.863Z,7.03
2018-03-11T11:41:36.292Z,9.27
2018-03-11T11:44:03.728Z,6.00
2018-03-11T11:46:31.181Z,7.90
2018-03-11T11:48:58.648Z,6.67
2018-03-11T11:51:26.093Z,8.53
2018-03-11T11:53:53.538Z,6.60
2018-03-11T11:56:20.960Z,9.60
2018-03-11T11:58:48.432Z,11.40
2018-03-11T12:01:15.863Z,7.27
2018-03-11T12:03:44.075Z,8.53
2018-03-11T12:06:11.512Z,7.47
2018-03-11T12:08:38.948Z,9.97
2018-03-11T12:11:07.167Z,8.33
2018-03-11T12:13:34.612Z,9.40
2018-03-11T12:16:02.054Z,8.37
2018-03-11T12:18:29.552Z,10.40
2018-03-11T12:20:56.988Z,12.10
2018-03-11T12:23:24.435Z,8.10
2018-03-11T12:25:51.916Z,7.90
2018-03-11T12:28:19.372Z,6.30
2018-03-11T12:30:46.834Z,6.17
2018-03-11T12:33:14.288Z,7.47
2018-03-11T12:35:41.721Z,7.00
2018-03-11T12:38:09.160Z,8.47
2018-03-11T12:40:36.657Z,7.50
2018-03-11T12:43:04.092Z,9.70
2018-03-11T12:45:31.537Z,8.03
2018-03-11T12:47:58.972Z,10.00
2018-03-11T12:50:27.172Z,8.20
2018-03-11T12:52:54.621Z,7.00
2018-03-11T12:55:22.107Z,6.63
2018-03-11T12:57:49.522Z,6.43
2018-03-11T13:00:16.930Z,6.43
2018-03-11T13:02:44.466Z,8.23
2018-03-11T13:05:11.907Z,6.70
2018-03-11T13:07:39.359Z,7.83
2018-03-11T13:10:06.770Z,7.50
2018-03-11T13:12:34.183Z,8.50
2018-03-11T13:15:01.627Z,8.27
2018-03-11T13:17:29.809Z,7.00
2018-03-11T13:20:09.039Z,8.17
2018-03-11T13:22:36.439Z,7.77
2018-03-11T13:25:03.856Z,9.77
2018-03-11T13:27:31.282Z,8.07
2018-03-11T13:29:59.479Z,8.30
2018-03-11T13:32:38.860Z,6.27
2018-03-11T13:35:06.279Z,7.37
2018-03-11T13:37:33.738Z,5.60
2018-03-11T13:40:13.176Z,6.07
2018-03-11T13:42:40.624Z,6.07
2018-03-11T13:45:19.778Z,7.30
2018-03-11T13:47:47.216Z,11.53
2018-03-11T13:50:14.623Z,7.13
2018-03-11T13:55:48.479Z,7.73
2018-03-11T14:01:13.185Z,8.30
2018-03-11T14:03:40.732Z,7.07
2018-03-11T14:06:08.168Z,5.40
2018-03-11T14:08:35.616Z,5.10
2018-03-11T14:11:03.179Z,4.30
2018-03-11T14:13:30.619Z,3.87
2018-03-11T14:15:58.097Z,5.00
2018-03-11T14:18:25.544Z,2.33
2018-03-11T14:20:53.001Z,4.83
2018-03-11T14:23:20.452Z,4.20
2018-03-11T14:25:47.934Z,3.67
2018-03-11T14:28:15.472Z,4.30
2018-03-11T14:30:43.028Z,5.03
2018-03-11T14:33:10.468Z,3.50
2018-03-11T14:35:37.952Z,6.23
2018-03-11T14:38:05.404Z,2.70
2018-03-11T14:40:32.851Z,2.10
2018-03-11T14:43:00.414Z,2.87
2018-03-11T14:45:27.859Z,2.20
2018-03-11T14:47:55.321Z,1.50
2018-03-11T14:50:22.751Z,1.33
2018-03-11T14:52:50.187Z,4.97
2018-03-11T14:55:18.391Z,4.90
2018-03-11T14:57:45.833Z,4.70
2018-03-11T15:00:13.272Z,3.20
2018-03-11T15:02:41.468Z,12.17
2018-03-11T15:05:08.899Z,7.10
2018-03-11T15:07:37.107Z,3.10
2018-03-11T15:10:04.592Z,2.43
2018-03-11T15:12:32.052Z,1.43
2018-03-11T15:14:59.496Z,2.07
2018-03-11T15:17:26.969Z,3.67
2018-03-11T15:19:54.420Z,2.03
2018-03-11T15:22:21.887Z,2.57
2018-03-11T15:24:49.334Z,1.53
2018-03-11T15:27:16.768Z,1.43
2018-03-11T15:29:44.251Z,1.67
2018-03-11T15:32:11.700Z,2.30
2018-03-11T15:34:39.190Z,1.97
2018-03-11T15:37:06.727Z,2.90
2018-03-11T15:39:34.178Z,2.90
2018-03-11T15:42:01.626Z,1.70
2018-03-11T15:44:29.087Z,4.03
2018-03-11T15:46:56.544Z,2.07
2018-03-11T15:49:23.973Z,4.33
2018-03-11T15:51:51.444Z,2.33
2018-03-11T15:54:18.919Z,2.37
2018-03-11T15:56:46.371Z,3.17
2018-03-11T15:59:13.935Z,2.50
2018-03-11T16:01:41.376Z,2.93
2018-03-11T16:04:08.842Z,2.50
2018-03-11T16:06:36.380Z,3.33
2018-03-11T16:09:03.835Z,4.00
2018-03-11T16:11:31.332Z,2.13
2018-03-11T16:13:58.888Z,3.03
2018-03-11T16:16:26.328Z,2.40
2018-03-11T16:18:53.782Z,3.30
2018-03-11T16:21:21.268Z,2.20
2018-03-11T16:23:48.914Z,3.40
2018-03-11T16:26:16.354Z,1.93
2018-03-11T16:28:43.804Z,3.67
2018-03-11T16:31:11.284Z,3.50
2018-03-11T16:33:38.741Z,3.47
2018-03-11T16:36:06.167Z,7.57
2018-03-11T16:38:33.908Z,7.30
2018-03-11T16:41:02.104Z,5.10
2018-03-11T16:43:29.548Z,5.03
2018-03-11T16:45:57.055Z,3.83
2018-03-11T16:48:24.622Z,3.50
2018-03-11T16:50:52.063Z,1.77
2018-03-11T16:53:20.029Z,1.97
2018-03-11T16:55:47.469Z,4.43
2018-03-11T16:58:14.909Z,3.17
2018-03-11T17:00:42.359Z,9.27
2018-03-11T17:03:09.805Z,5.23
2018-03-11T17:05:38.032Z,3.90
2018-03-11T17:08:06.176Z,1.87
2018-03-11T17:10:33.612Z,7.03
2018-03-11T17:13:01.842Z,3.10
2018-03-11T17:15:29.264Z,3.07
2018-03-11T17:17:56.707Z,1.57
2018-03-11T17:20:24.145Z,2.37
2018-03-11T17:22:52.371Z,2.33
2018-03-11T17:25:19.808Z,2.67
2018-03-11T17:27:47.265Z,2.17
2018-03-11T17:30:14.692Z,2.43
2018-03-11T17:32:42.887Z,2.40
2018-03-11T17:35:10.334Z,4.23
2018-03-11T17:37:37.788Z,2.97
2018-03-11T17:40:06.024Z,2.77
2018-03-11T17:42:33.473Z,1.73
2018-03-11T17:45:00.924Z,2.63
2018-03-11T17:47:28.367Z,2.73
2018-03-11T17:49:55.817Z,3.90
2018-03-11T17:52:23.277Z,2.40
2018-03-11T17:54:50.713Z,1.97
2018-03-11T17:57:18.161Z,2.13
2018-03-11T17:59:46.364Z,1.70
2018-03-11T18:02:13.836Z,3.10
2018-03-11T18:04:41.270Z,5.10
2018-03-11T18:07:08.726Z,2.50
2018-03-11T18:09:36.174Z,8.30
2018-03-11T18:12:03.605Z,3.70
2018-03-11T18:14:31.854Z,5.43
2018-03-11T18:16:59.280Z,4.03
2018-03-11T18:19:26.750Z,5.10
2018-03-11T18:21:54.201Z,4.67
2018-03-11T18:24:21.651Z,5.10
2018-03-11T18:26:49.090Z,3.20
2018-03-11T18:29:16.533Z,6.77
2018-03-11T18:31:44.745Z,6.27
2018-03-11T18:34:12.180Z,4.43
2018-03-11T18:36:39.622Z,5.90
2018-03-11T18:39:07.819Z,7.87
2018-03-11T18:41:35.297Z,7.17
2018-03-11T18:44:02.735Z,17.03
2018-03-11T18:46:30.177Z,16.63
2018-03-11T18:48:57.625Z,8.83
2018-03-11T18:51:25.060Z,7.57
2018-03-11T18:53:53.275Z,8.60
2018-03-11T18:56:20.733Z,7.80
2018-03-11T18:58:48.176Z,5.73
2018-03-11T19:01:15.642Z,5.70
2018-03-11T19:03:43.174Z,7.33
2018-03-11T19:06:10.563Z,8.90
2018-03-11T19:08:38.036Z,6.60
2018-03-11T19:11:05.482Z,6.80
2018-03-11T19:13:32.904Z,4.43
2018-03-11T19:16:01.129Z,8.07
2018-03-11T19:18:28.632Z,10.80
2018-03-11T19:20:56.895Z,6.00
2018-03-11T19:23:25.092Z,8.20
2018-03-11T19:25:52.523Z,4.60
2018-03-11T19:28:20.740Z,6.40
2018-03-11T19:30:48.244Z,6.37
2018-03-11T19:33:15.686Z,5.50
2018-03-11T19:35:43.127Z,5.77
2018-03-11T19:38:10.557Z,3.33
2018-03-11T19:40:38.008Z,4.13
2018-03-11T19:43:06.242Z,2.50
2018-03-11T19:45:33.700Z,2.40
2018-03-11T19:48:01.148Z,3.67
2018-03-11T19:50:28.604Z,4.57
2018-03-11T19:52:56.081Z,7.40
2018-03-11T19:55:23.656Z,8.80
2018-03-11T19:57:51.935Z,15.30
2018-03-11T20:00:20.195Z,12.40
2018-03-11T20:02:47.642Z,11.97
2018-03-11T20:05:15.105Z,13.93
2018-03-11T20:07:42.551Z,7.70
2018-03-11T20:10:10.023Z,9.03
2018-03-11T20:12:38.256Z,8.47
2018-03-11T20:15:05.705Z,8.47
2018-03-11T20:17:33.193Z,10.13
2018-03-11T20:20:00.627Z,13.60
2018-03-11T20:22:28.067Z,9.07
2018-03-11T20:24:55.566Z,10.03
2018-03-11T20:27:23.003Z,9.37
2018-03-11T20:29:50.458Z,9.27
2018-03-11T20:32:17.896Z,13.27
2018-03-11T20:34:45.373Z,10.10
2018-03-11T20:37:12.807Z,10.50
2018-03-11T20:39:40.244Z,15.73
2018-03-11T20:42:07.679Z,12.40
2018-03-11T20:44:35.927Z,8.80
2018-03-11T20:47:03.358Z,10.30
2018-03-11T20:49:30.795Z,12.57
2018-03-11T20:51:58.261Z,15.00
2018-03-11T20:54:25.727Z,25.83
2018-03-11T20:56:53.193Z,22.50
2018-03-11T20:59:20.675Z,24.27
2018-03-11T21:01:48.133Z,18.33
2018-03-11T21:04:15.565Z,13.70
2018-03-11T21:06:43.030Z,14.97
2018-03-11T21:09:10.476Z,13.30
2018-03-11T21:11:37.948Z,11.10
2018-03-11T21:14:05.417Z,11.30
2018-03-11T21:16:32.860Z,10.70
2018-03-11T21:19:00.319Z,10.37
2018-03-11T21:21:27.873Z,9.90
2018-03-11T21:23:55.331Z,8.13
2018-03-11T21:26:22.796Z,15.37
2018-03-11T21:28:50.244Z,9.53
2018-03-11T21:31:17.696Z,9.23
2018-03-11T21:33:45.270Z,10.90
2018-03-11T21:36:12.828Z,9.07
2018-03-11T21:38:40.276Z,7.10
2018-03-11T21:41:07.716Z,7.93
2018-03-11T21:43:35.189Z,9.50
2018-03-11T21:46:02.640Z,13.17
2018-03-11T21:48:30.091Z,9.43
2018-03-11T21:50:57.572Z,13.80
2018-03-11T21:53:25.007Z,11.90
2018-03-11T21:55:52.440Z,9.23
2018-03-11T21:58:19.933Z,14.87
2018-03-11T22:00:47.404Z,18.73
2018-03-11T22:03:14.950Z,33.47
2018-03-11T22:05:42.392Z,14.10
2018-03-11T22:08:09.860Z,16.27
2018-03-11T22:10:37.304Z,12.10
2018-03-11T22:13:04.785Z,11.30
2018-03-11T22:15:32.327Z,13.47
2018-03-11T22:17:59.788Z,11.20
2018-03-11T22:20:27.347Z,10.00
2018-03-11T22:22:54.792Z,14.37
2018-03-11T22:25:22.230Z,10.00
2018-03-11T22:27:49.663Z,9.23
2018-03-11T22:30:17.866Z,9.57
2018-03-11T22:32:45.307Z,13.90
2018-03-11T22:35:12.799Z,11.43
2018-03-11T22:37:40.240Z,16.23
2018-03-11T22:40:07.671Z,18.07
2018-03-11T22:42:35.179Z,11.43
2018-03-11T22:45:02.628Z,12.83
2018-03-11T22:47:30.064Z,12.50
2018-03-11T22:49:57.497Z,15.30
2018-03-11T22:52:25.700Z,15.50
2018-03-11T22:54:53.168Z,14.97
2018-03-11T22:57:20.609Z,15.80
2018-03-11T22:59:48.091Z,23.63
2018-03-11T23:02:16.311Z,23.53
2018-03-11T23:04:44.540Z,26.23
2018-03-11T23:07:12.000Z,15.33
2018-03-11T23:09:39.461Z,13.03
2018-03-11T23:12:07.008Z,13.00
2018-03-11T23:14:34.460Z,11.90
2018-03-11T23:17:02.033Z,15.27
2018-03-11T23:19:29.476Z,11.93
2018-03-11T23:21:56.939Z,11.90
2018-03-11T23:24:24.501Z,13.30
2018-03-11T23:26:51.940Z,12.20
2018-03-11T23:29:19.385Z,14.63
2018-03-11T23:31:46.887Z,11.57
2018-03-11T23:34:14.329Z,13.30
2018-03-11T23:36:41.759Z,14.07
2018-03-11T23:39:09.200Z,12.13
2018-03-11T23:41:36.655Z,11.40
2018-03-11T23:44:04.156Z,9.47
2018-03-11T23:46:31.623Z,7.40
2018-03-11T23:48:59.193Z,8.67
2018-03-11T23:51:26.644Z,9.80
2018-03-11T23:53:54.188Z,8.97
2018-03-11T23:56:21.643Z,9.20
2018-03-11T23:58:49.082Z,9.50
